Time;durP1;ratioP1;P1;durP2;ratioP2;P2;SDS_P1;SDS_P2;PMS_P1;PMS_P2;Temp;Humidity;BMP_temperature;BMP_pressure;BME280_temperature;BME280_humidity;BME280_pressure;Samples;Min_cycle;Max_cycle;Signal;HPM_P1;HPM_P2
2022/11/16 00:00:22;;;;;;;100.70;55.30;;;;;;;5.48;82.95;99250.81;5054448;28;20025;-69
2022/11/16 00:02:50;;;;;;;100.13;53.33;;;;;;;5.52;82.69;99241.88;5052825;28;20032;-69
2022/11/16 00:05:17;;;;;;;96.93;55.40;;;;;;;5.34;82.49;99245.25;5054255;28;20017;-69
2022/11/16 00:07:43;;;;;;;99.78;56.08;;;;;;;5.46;82.94;99232.84;5036440;28;20072;-69
2022/11/16 00:10:10;;;;;;;102.82;55.60;;;;;;;5.50;82.83;99231.13;5036417;28;20132;-69
2022/11/16 00:12:35;;;;;;;94.90;52.35;;;;;;;5.56;81.55;99232.63;5054391;28;20082;-69
2022/11/16 00:15:01;;;;;;;86.43;50.38;;;;;;;5.55;81.57;99227.38;5054151;28;20033;-69
2022/11/16 00:17:26;;;;;;;85.15;49.80;;;;;;;5.43;81.46;99231.53;5035319;28;20053;-70
2022/11/16 00:19:52;;;;;;;93.32;52.65;;;;;;;5.43;80.56;99220.41;5033880;28;20063;-70
2022/11/16 00:22:17;;;;;;;91.07;49.65;;;;;;;5.37;80.15;99218.03;5054241;28;20033;-70
2022/11/16 00:24:43;;;;;;;94.63;53.03;;;;;;;5.33;79.87;99223.38;5054311;28;20032;-69
2022/11/16 00:27:08;;;;;;;88.03;49.15;;;;;;;5.40;80.00;99220.22;5054147;28;20143;-70
2022/11/16 00:29:34;;;;;;;90.03;51.13;;;;;;;5.39;80.01;99218.56;5053382;28;20082;-70
2022/11/16 00:31:59;;;;;;;85.78;49.45;;;;;;;5.33;79.80;99220.59;5036225;28;20029;-69
2022/11/16 00:34:24;;;;;;;88.45;49.22;;;;;;;5.10;80.27;99223.22;5052678;28;20427;-69
2022/11/16 00:36:50;;;;;;;87.45;47.28;;;;;;;4.84;81.90;99208.97;5054041;28;20032;-70
2022/11/16 00:39:17;;;;;;;80.07;45.63;;;;;;;4.67;83.54;99209.53;5049042;28;20025;-69
2022/11/16 00:41:43;;;;;;;83.97;47.85;;;;;;;4.75;83.64;99209.66;5050850;28;20037;-70
2022/11/16 00:44:09;;;;;;;76.82;45.85;;;;;;;4.81;82.85;99206.81;5031163;28;20032;-70
2022/11/16 00:46:34;;;;;;;81.43;45.25;;;;;;;4.83;81.88;99199.03;5033667;28;20055;-69
2022/11/16 00:49:00;;;;;;;75.57;45.17;;;;;;;4.90;81.45;99197.50;5037151;28;20028;-69
2022/11/16 00:51:25;;;;;;;78.47;45.92;;;;;;;4.90;81.20;99191.97;5034192;28;20064;-70
2022/11/16 00:53:51;;;;;;;71.10;42.88;;;;;;;4.95;81.63;99196.59;5053327;28;20032;-70
2022/11/16 00:56:16;;;;;;;75.10;45.75;;;;;;;4.76;82.14;99191.09;5035698;28;20091;-69
2022/11/16 00:58:42;;;;;;;78.57;45.85;;;;;;;4.35;84.27;99210.03;5035456;28;20032;-70
2022/11/16 01:01:08;;;;;;;86.57;48.22;;;;;;;4.04;85.94;99196.63;5053646;28;20480;-69
2022/11/16 01:03:35;;;;;;;85.85;48.35;;;;;;;3.74;87.66;99178.47;5053439;28;20049;-69
2022/11/16 01:06:05;;;;;;;79.68;45.03;;;;;;;3.43;89.38;99190.75;5051053;28;20024;-70
2022/11/16 01:08:32;;;;;;;100.05;51.42;;;;;;;3.16;90.36;99192.16;5052776;28;20033;-69
2022/11/16 01:12:07;;;;;;;91.38;50.42;;;;;;;3.22;90.65;99190.97;5035359;28;20046;-70
2022/11/16 01:13:48;;;;;;;93.18;51.03;;;;;;;2.98;92.18;99190.09;5052908;28;20040;-69
2022/11/16 01:16:18;;;;;;;93.00;52.35;;;;;;;2.95;93.56;99181.28;5053357;28;20040;-69
2022/11/16 01:18:49;;;;;;;99.55;53.05;;;;;;;2.91;94.54;99180.25;5051935;28;20025;-68
2022/11/16 01:21:15;;;;;;;103.82;51.60;;;;;;;2.81;93.46;99180.31;5034472;28;20040;-69
2022/11/16 01:23:41;;;;;;;100.93;52.50;;;;;;;2.62;94.15;99182.97;5052849;28;20565;-69
2022/11/16 01:26:07;;;;;;;103.25;53.97;;;;;;;2.64;94.28;99176.03;5053015;28;20053;-69
2022/11/16 01:28:32;;;;;;;112.63;56.25;;;;;;;2.70;93.71;99179.56;5034875;28;20029;-69
2022/11/16 01:30:58;;;;;;;102.50;53.45;;;;;;;2.81;93.85;99172.03;5053001;28;20028;-69
2022/11/16 01:33:24;;;;;;;116.47;53.38;;;;;;;2.70;93.98;99173.25;5034967;28;20029;-69
2022/11/16 01:35:49;;;;;;;105.15;52.85;;;;;;;2.71;94.87;99172.94;5051897;28;20479;-69
2022/11/16 01:38:15;;;;;;;111.90;55.17;;;;;;;2.62;94.92;99181.03;5052710;28;20463;-69
2022/11/16 01:40:40;;;;;;;104.47;52.58;;;;;;;2.69;95.00;99179.88;5051651;28;20017;-69
2022/11/16 01:44:07;;;;;;;109.07;53.10;;;;;;;2.98;94.86;99170.75;5052809;28;20020;-69
2022/11/16 01:46:33;;;;;;;90.63;47.28;;;;;;;3.25;93.69;99167.44;4961083;28;20543;-69
2022/11/16 01:49:20;;;;;;;93.82;48.97;;;;;;;3.45;93.38;99174.69;5035431;28;20040;-69
2022/11/16 01:51:51;;;;;;;100.30;49.92;;;;;;;3.47;91.95;99166.91;5051604;28;20476;-69
2022/11/16 01:54:17;;;;;;;103.75;51.67;;;;;;;3.72;91.36;99164.94;5034602;28;20555;-70
2022/11/16 01:56:46;;;;;;;99.70;50.70;;;;;;;3.91;90.05;99158.63;5052542;28;20040;-69
2022/11/16 01:59:14;;;;;;;84.55;45.25;;;;;;;3.87;88.59;99154.81;5034176;28;20415;-70
2022/11/16 02:01:39;;;;;;;86.47;50.25;;;;;;;4.03;87.92;99164.53;5052469;28;20033;-69
2022/11/16 02:04:05;;;;;;;82.80;46.50;;;;;;;4.12;86.43;99161.91;5051946;28;20046;-68
2022/11/16 02:06:57;;;;;;;83.00;45.67;;;;;;;4.18;85.76;99159.88;5051440;28;20115;-69
2022/11/16 02:09:53;;;;;;;92.82;51.10;;;;;;;4.25;85.15;99152.03;5043717;28;20041;-70
2022/11/16 02:12:46;;;;;;;83.90;43.92;;;;;;;4.30;84.11;99159.44;5052219;28;20656;-69
2022/11/16 02:15:29;;;;;;;84.28;46.05;;;;;;;4.33;83.58;99148.56;5034040;28;20120;-69
2022/11/16 02:18:21;;;;;;;92.13;48.70;;;;;;;4.33;83.38;99147.75;5033978;28;20033;-69
2022/11/16 02:20:58;;;;;;;89.97;47.25;;;;;;;4.43;83.09;99132.91;5050971;28;20025;-69
2022/11/16 02:23:44;;;;;;;85.10;46.13;;;;;;;4.39;83.85;99132.69;5051676;28;20418;-70
2022/11/16 02:26:34;;;;;;;86.78;42.95;;;;;;;4.26;84.95;99131.53;5052017;28;20099;-69
2022/11/16 02:29:12;;;;;;;;;;;;;;;4.18;85.28;99123.88;5029810;28;20174;-69
2022/11/16 02:31:45;;;;;;;84.00;44.72;;;;;;;4.27;85.48;99119.31;5044731;28;20402;-68
2022/11/16 02:34:15;;;;;;;82.60;44.38;;;;;;;4.27;85.40;99121.25;5046312;28;20037;-69
2022/11/16 02:36:42;;;;;;;83.80;44.45;;;;;;;4.08;85.32;99111.84;5051789;28;20456;-69
2022/11/16 02:39:13;;;;;;;77.90;43.00;;;;;;;4.12;84.98;99106.53;5051577;28;20040;-69
2022/11/16 02:41:41;;;;;;;79.40;42.40;;;;;;;4.22;84.68;99102.78;5051740;28;20028;-69
2022/11/16 02:44:25;;;;;;;83.35;43.45;;;;;;;4.24;84.83;99099.72;5033897;28;20432;-69
2022/11/16 02:46:56;;;;;;;79.20;43.22;;;;;;;4.26;84.45;99089.16;5050969;28;20052;-69
2022/11/16 02:49:23;;;;;;;90.15;46.53;;;;;;;4.27;83.63;99079.72;5050896;28;20448;-70
2022/11/16 02:51:51;;;;;;;95.82;47.28;;;;;;;4.25;84.15;99082.81;5051108;28;20071;-69
2022/11/16 02:54:18;;;;;;;89.55;47.00;;;;;;;4.19;83.99;99076.53;5051556;28;20031;-70
2022/11/16 02:57:01;;;;;;;110.38;57.22;;;;;;;4.19;83.43;99079.31;5033412;28;20499;-69
2022/11/16 02:59:32;;;;;;;123.43;63.33;;;;;;;4.19;82.97;99076.53;5033494;28;20044;-69
2022/11/16 03:02:22;;;;;;;129.10;70.32;;;;;;;4.21;81.89;99078.97;5029370;28;20040;-70
2022/11/16 03:04:52;;;;;;;138.05;71.15;;;;;;;3.89;81.73;99070.34;5027966;28;20108;-69
2022/11/16 03:07:24;;;;;;;149.25;72.88;;;;;;;4.03;81.41;99070.41;5046570;28;20044;-69
2022/11/16 03:09:51;;;;;;;126.47;63.20;;;;;;;3.97;81.98;99059.75;5051532;28;20083;-69
2022/11/16 03:12:22;;;;;;;124.93;64.78;;;;;;;3.98;81.97;99050.31;5051409;28;20402;-70
2022/11/16 03:14:51;;;;;;;120.18;62.38;;;;;;;4.01;81.45;99050.53;5033513;28;20060;-70
2022/11/16 03:17:27;;;;;;;113.32;56.47;;;;;;;4.08;81.23;99053.72;5050581;28;20037;-69
2022/11/16 03:20:05;;;;;;;112.07;59.38;;;;;;;3.77;82.10;99064.44;5051345;28;20032;-69
2022/11/16 03:22:41;;;;;;;122.10;60.38;;;;;;;3.83;82.14;99070.72;5051266;28;20033;-69
2022/11/16 03:25:10;;;;;;;123.93;63.25;;;;;;;3.83;81.95;99076.25;5051344;28;20017;-69
2022/11/16 03:27:47;;;;;;;113.60;58.45;;;;;;;3.98;82.19;99077.97;5033314;28;20037;-70
2022/11/16 03:30:19;;;;;;;107.13;53.80;;;;;;;4.03;81.79;99075.97;5051189;28;20480;-69
2022/11/16 03:33:04;;;;;;;94.90;50.75;;;;;;;3.90;83.32;99087.78;5050325;28;20064;-70
2022/11/16 03:35:40;;;;;;;88.72;46.72;;;;;;;3.75;84.38;99075.84;5032409;28;20128;-70
2022/11/16 03:38:09;;;;;;;83.63;44.30;;;;;;;3.73;85.30;99072.53;5051146;28;20515;-69
2022/11/16 03:40:37;;;;;;;82.28;43.38;;;;;;;3.80;85.42;99066.59;5051046;28;20450;-70
2022/11/16 03:43:05;;;;;;;80.75;44.08;;;;;;;3.85;85.22;99068.47;5051074;28;20072;-70
2022/11/16 03:45:31;;;;;;;77.13;42.75;;;;;;;3.91;85.17;99067.28;5050841;28;20472;-69
2022/11/16 03:47:57;;;;;;;78.78;42.30;;;;;;;3.92;85.40;99049.56;5050153;28;20029;-70
2022/11/16 03:50:22;;;;;;;79.38;43.38;;;;;;;4.00;84.80;99050.81;5036991;28;20395;-69
2022/11/16 03:52:48;;;;;;;83.20;45.13;;;;;;;3.98;84.74;99048.38;5052926;28;20066;-69
2022/11/16 03:55:13;;;;;;;75.53;44.15;;;;;;;3.94;85.21;99041.78;5055881;28;20033;-70
2022/11/16 03:57:39;;;;;;;80.90;45.05;;;;;;;4.04;85.35;99049.91;5032876;28;20044;-69
2022/11/16 04:00:05;;;;;;;91.47;48.85;;;;;;;4.14;85.23;99048.91;5050910;28;20025;-69
2022/11/16 04:02:31;;;;;;;90.65;50.10;;;;;;;3.89;84.56;99037.16;5050111;28;20029;-69
2022/11/16 04:24:20;;;;;;;93.47;45.08;;;;;;;3.88;82.79;99015.31;5054356;28;20095;-69
2022/11/16 04:29:36;;;;;;;81.63;43.45;;;;;;;3.89;83.07;99005.91;5051423;28;20095;-70
2022/11/16 04:37:53;;;;;;;91.22;45.90;;;;;;;3.97;82.47;99001.63;5053872;28;20565;-70
2022/11/16 04:40:23;;;;;;;84.80;44.78;;;;;;;3.85;82.90;99005.69;5053908;28;20027;-69
2022/11/16 04:42:50;;;;;;;;;;;;;;;3.91;83.05;99003.66;5053169;28;20028;-69
2022/11/16 04:47:59;;;;;;;79.30;41.75;;;;;;;4.06;80.94;98997.03;5053640;28;20035;-69
2022/11/16 04:50:25;;;;;;;72.63;40.97;;;;;;;4.03;81.44;98995.69;5053698;28;20108;-69
2022/11/16 04:52:50;;;;;;;83.65;42.97;;;;;;;4.02;81.27;98996.81;5053540;28;20020;-69
2022/11/16 04:55:16;;;;;;;80.78;43.22;;;;;;;3.89;80.54;98981.00;5035179;28;20029;-69
2022/11/16 04:57:41;;;;;;;78.22;44.45;;;;;;;3.86;80.86;98981.59;5051744;28;20033;-69
2022/11/16 05:00:07;;;;;;;73.88;39.20;;;;;;;3.85;80.55;98977.16;5053551;28;20029;-69
2022/11/16 05:02:33;;;;;;;82.32;40.30;;;;;;;3.85;79.94;98974.41;5035306;28;20036;-70
2022/11/16 05:04:58;;;;;;;80.47;42.05;;;;;;;3.75;80.20;98992.00;5035202;28;20021;-69
2022/11/16 05:07:24;;;;;;;77.22;42.00;;;;;;;3.71;79.90;98993.75;5051482;28;20494;-69
2022/11/16 05:09:50;;;;;;;76.72;41.13;;;;;;;3.72;79.80;98987.88;5032000;28;20036;-69
2022/11/16 05:12:23;;;;;;;80.20;40.72;;;;;;;3.68;79.74;98986.84;5026359;28;20033;-69
2022/11/16 05:14:48;;;;;;;81.22;41.10;;;;;;;3.64;79.60;98999.66;5046497;28;20028;-68
2022/11/16 05:17:15;;;;;;;88.22;40.95;;;;;;;3.62;79.63;98990.81;5049152;28;20039;-69
2022/11/16 05:22:24;;;;;;;93.90;42.22;;;;;;;3.37;80.12;98992.84;5048853;28;20412;-70
2022/11/16 05:24:50;;;;;;;128.82;64.82;;;;;;;3.47;79.82;99006.50;5048225;28;20025;-69
2022/11/16 05:27:17;;;;;;;136.15;65.75;;;;;;;3.46;79.91;98998.53;5046511;28;20029;-70
2022/11/16 05:29:43;;;;;;;78.18;42.58;;;;;;;3.22;80.46;99004.97;5046960;28;20032;-69
2022/11/16 05:32:11;;;;;;;91.88;43.00;;;;;;;3.08;81.17;99002.09;5052876;28;20107;-69
2022/11/16 05:34:36;;;;;;;100.28;47.63;;;;;;;3.19;81.60;99005.53;5052435;28;20040;-69
2022/11/16 05:37:03;;;;;;;86.47;47.15;;;;;;;3.32;81.42;99015.03;5033525;28;20496;-69
2022/11/16 05:39:29;;;;;;;85.63;43.50;;;;;;;3.14;82.82;99009.22;5034470;28;20029;-69
2022/11/16 05:41:55;;;;;;;83.70;42.53;;;;;;;3.28;82.83;99009.28;5051955;28;20079;-69
2022/11/16 05:44:22;;;;;;;91.28;44.20;;;;;;;3.25;82.34;99001.59;5034224;28;20082;-69
2022/11/16 05:46:47;;;;;;;79.95;39.78;;;;;;;3.33;82.30;98991.81;5052246;28;20170;-70
2022/11/16 05:49:14;;;;;;;80.57;41.08;;;;;;;3.45;82.35;98989.41;5034565;28;20278;-70
2022/11/16 05:51:41;;;;;;;76.53;40.05;;;;;;;3.53;81.39;98987.91;5052455;28;20033;-70
2022/11/16 05:54:09;;;;;;;86.35;44.90;;;;;;;3.55;81.62;98998.69;5052187;28;20071;-69
2022/11/16 05:56:35;;;;;;;79.88;43.83;;;;;;;3.47;81.76;99003.75;5045104;28;20478;-69
2022/11/16 05:59:01;;;;;;;96.65;47.38;;;;;;;3.55;82.92;98999.47;5020102;28;20076;-73
2022/11/16 06:01:26;;;;;;;105.03;53.25;;;;;;;3.63;82.85;98986.94;5042596;28;20025;-66
2022/11/16 06:03:52;;;;;;;135.95;61.28;;;;;;;3.80;82.32;99000.22;5042524;28;20081;-68
2022/11/16 06:06:18;;;;;;;114.00;58.05;;;;;;;3.93;81.95;99004.16;5030129;28;20037;-65
2022/11/16 06:08:44;;;;;;;106.25;56.72;;;;;;;3.97;82.27;98987.78;5033887;28;20039;-67
2022/11/16 06:11:09;;;;;;;105.55;55.22;;;;;;;3.97;81.41;99002.44;5048790;28;20480;-67
2022/11/16 06:13:35;;;;;;;101.05;59.58;;;;;;;4.04;81.03;98997.34;5047594;28;20075;-67
2022/11/16 06:16:02;;;;;;;109.90;56.85;;;;;;;4.17;80.64;98990.19;5048964;28;20103;-67
2022/11/16 06:18:27;;;;;;;114.85;62.65;;;;;;;4.20;80.44;98991.53;5039501;28;20112;-67
2022/11/16 06:20:53;;;;;;;124.90;64.75;;;;;;;4.12;80.67;98984.75;5023466;28;21806;-70
2022/11/16 06:23:19;;;;;;;140.85;76.78;;;;;;;4.14;80.99;98981.69;5030697;28;20788;-69
2022/11/16 06:25:45;;;;;;;185.45;99.80;;;;;;;4.38;80.44;98983.47;5029458;28;20025;-71
2022/11/16 06:28:11;;;;;;;167.57;91.97;;;;;;;4.50;80.37;98970.75;5030313;28;20104;-74
2022/11/16 06:30:39;;;;;;;163.35;87.28;;;;;;;4.69;79.92;98975.38;5031356;28;20083;-73
2022/11/16 06:33:05;;;;;;;164.20;80.88;;;;;;;4.71;79.36;98969.53;5049118;28;20544;-72
2022/11/16 06:35:31;;;;;;;119.20;65.78;;;;;;;4.72;79.74;98979.50;5046381;28;20037;-76
2022/11/16 06:37:57;;;;;;;107.57;53.92;;;;;;;4.91;80.26;98980.19;5029416;28;20037;-70
2022/11/16 06:40:22;;;;;;;94.15;52.28;;;;;;;5.02;79.91;98982.75;5049976;28;20032;-69
2022/11/16 06:42:48;;;;;;;87.47;49.92;;;;;;;4.95;81.25;98987.88;5030282;28;20032;-70
2022/11/16 06:45:13;;;;;;;77.00;44.95;;;;;;;4.91;81.58;98982.97;5030526;28;20427;-69
2022/11/16 06:47:39;;;;;;;80.90;46.40;;;;;;;5.06;81.90;98975.44;5049517;28;20039;-69
2022/11/16 06:50:04;;;;;;;80.78;44.25;;;;;;;5.32;80.31;98966.59;5047617;28;20502;-69
2022/11/16 06:52:30;;;;;;;81.32;42.42;;;;;;;5.32;80.75;98966.59;5035616;28;20408;-70
2022/11/16 06:54:56;;;;;;;78.82;41.53;;;;;;;5.20;81.99;98944.94;5047479;28;20498;-72
2022/11/16 06:57:22;;;;;;;87.43;49.33;;;;;;;5.24;82.46;98959.78;5040300;28;20480;-75
2022/11/16 06:59:47;;;;;;;82.20;43.80;;;;;;;5.12;83.51;98954.81;5045584;28;20052;-70
2022/11/16 07:02:15;;;;;;;73.20;40.65;;;;;;;5.06;84.62;98956.03;5048329;28;20553;-73
2022/11/16 07:04:40;;;;;;;78.75;43.30;;;;;;;5.19;84.70;98957.16;5041079;28;20028;-69
2022/11/16 07:07:05;;;;;;;76.03;43.10;;;;;;;5.34;84.94;98956.00;5045642;28;20025;-69
2022/11/16 07:09:31;;;;;;;73.13;43.08;;;;;;;5.58;83.91;98957.66;5048638;28;20522;-68
2022/11/16 07:11:56;;;;;;;72.75;42.42;;;;;;;5.91;82.10;98957.38;5030952;28;20025;-73
2022/11/16 07:14:22;;;;;;;73.30;42.33;;;;;;;6.11;81.44;98949.72;5049043;28;20029;-74
2022/11/16 07:16:47;;;;;;;69.95;41.03;;;;;;;6.35;80.14;98948.53;5030955;28;20032;-80
2022/11/16 07:19:13;;;;;;;74.95;40.55;;;;;;;6.40;80.65;98949.22;5030868;28;20036;-74
2022/11/16 07:21:38;;;;;;;71.90;42.60;;;;;;;6.52;80.85;98945.84;5029252;28;20024;-69
2022/11/16 07:24:04;;;;;;;81.35;43.40;;;;;;;6.52;81.21;98956.13;5048322;28;20487;-69
2022/11/16 07:26:32;;;;;;;75.97;41.75;;;;;;;6.56;81.70;98941.28;5048935;28;20025;-69
2022/11/16 07:28:58;;;;;;;75.32;42.08;;;;;;;6.60;82.31;98950.59;5047832;28;20025;-69
2022/11/16 07:31:24;;;;;;;81.97;45.10;;;;;;;6.51;82.80;98941.41;5047638;28;20041;-71
2022/11/16 07:45:13;;;;;;;76.50;41.22;;;;;;;6.99;83.38;98923.06;4921585;29;20043;-72
2022/11/16 07:48:26;;;;;;;80.70;44.08;;;;;;;7.39;83.26;98930.50;4922434;29;20048;-72
2022/11/16 07:54:41;;;;;;;67.82;39.05;;;;;;;7.76;80.69;98932.09;4825680;29;20041;-69
2022/11/16 07:57:54;;;;;;;63.53;37.20;;;;;;;7.88;80.66;98929.47;4859365;29;20053;-71
2022/11/16 08:00:32;;;;;;;70.47;41.13;;;;;;;7.80;81.39;98924.72;4875552;29;20420;-70
2022/11/16 08:06:53;;;;;;;;;;;;;;;;;;;;;
2022/11/16 08:09:52;;;;;;;70.13;41.03;;;;;;;8.32;79.36;98906.22;5031735;28;20044;-67
2022/11/16 08:16:27;;;;;;;74.13;39.28;;;;;;;8.81;79.03;98891.94;4949608;28;20042;-69
2022/11/16 08:19:53;;;;;;;70.03;39.13;;;;;;;8.89;77.70;98890.25;4956904;28;20038;-68
2022/11/16 08:22:32;;;;;;;81.10;42.97;;;;;;;9.03;77.65;98893.59;4968476;28;20061;-69
2022/11/16 08:25:43;;;;;;;63.30;36.10;;;;;;;9.06;78.33;98892.94;4969401;28;20043;-69
2022/11/16 08:28:54;;;;;;;64.45;37.60;;;;;;;9.34;76.69;98878.44;4892961;29;20087;-69
2022/11/16 08:35:26;;;;;;;69.07;39.85;;;;;;;9.57;75.98;98878.06;4893878;29;20115;-69
2022/11/16 08:38:26;;;;;;;417.58;178.75;;;;;;;9.77;76.03;98864.38;4871130;29;20055;-70
2022/11/16 08:44:44;;;;;;;84.28;44.60;;;;;;;10.18;74.32;98859.00;4914957;29;20554;-72
2022/11/16 08:47:51;;;;;;;69.90;41.13;;;;;;;10.21;74.87;98858.34;4950543;28;20555;-71
2022/11/16 08:54:30;;;;;;;71.85;41.75;;;;;;;10.48;72.62;98859.63;4956338;28;20037;-72
2022/11/16 08:57:54;;;;;;;67.38;39.03;;;;;;;10.66;73.14;98842.63;4887819;29;20178;-71
2022/11/16 09:01:08;;;;;;;68.00;39.67;;;;;;;10.91;72.40;98835.00;4895066;29;20107;-73
2022/11/16 09:04:02;;;;;;;70.35;40.78;;;;;;;10.81;71.61;98829.91;4874489;29;20108;-73
2022/11/16 09:17:08;;;;;;;75.43;40.63;;;;;;;11.71;68.41;98814.88;4822527;29;20046;-72
2022/11/16 09:19:58;;;;;;;96.18;46.08;;;;;;;11.70;67.75;98804.03;4812986;29;20458;-72
2022/11/16 09:23:13;;;;;;;55.10;34.28;;;;;;;11.81;67.81;98805.13;4855448;29;20042;-72
2022/11/16 09:26:51;;;;;;;55.65;35.17;;;;;;;11.65;68.06;98805.94;4876281;29;20043;-71
2022/11/16 09:29:49;;;;;;;60.25;34.97;;;;;;;11.75;67.35;98800.97;4856628;29;20632;-71
2022/11/16 09:36:11;;;;;;;58.03;34.20;;;;;;;12.42;65.55;98772.22;4918521;29;20515;-70
2022/11/16 09:42:59;;;;;;;65.10;35.58;;;;;;;12.53;65.95;98758.47;4882549;29;20036;-69
2022/11/16 09:46:25;;;;;;;44.28;27.52;;;;;;;12.58;64.94;98748.97;4870493;29;20080;-69
2022/11/16 10:01:05;;;;;;;46.53;28.98;;;;;;;13.32;62.50;98707.94;4838893;29;20183;-72
2022/11/16 10:04:13;;;;;;;;;;;;;;;;;;;;;
2022/11/16 10:07:19;;;;;;;54.05;30.00;;;;;;;13.88;62.03;98702.94;4942204;28;20141;-73
2022/11/16 10:10:59;;;;;;;51.30;29.50;;;;;;;13.74;60.87;98693.09;4989289;28;20057;-73
2022/11/16 10:14:38;;;;;;;61.03;30.98;;;;;;;13.95;62.19;98688.19;4902440;29;20116;-74
2022/11/16 10:18:03;;;;;;;45.47;24.73;;;;;;;13.90;61.25;98681.72;4902330;29;20055;-73
2022/11/16 10:21:02;;;;;;;54.38;28.67;;;;;;;14.09;60.32;98673.56;4854171;29;20630;-73
2022/11/16 10:27:37;;;;;;;41.08;24.70;;;;;;;14.48;58.56;98655.59;4949096;28;20043;-74
2022/11/16 10:34:57;;;;;;;41.22;24.00;;;;;;;14.79;58.49;98640.38;4885807;29;20048;-73
2022/11/16 10:38:31;;;;;;;33.70;21.83;;;;;;;14.98;57.46;98635.75;4799419;29;20035;-74
2022/11/16 10:48:52;;;;;;;37.40;24.08;;;;;;;14.93;57.63;98611.56;4778356;29;22091;-72
2022/11/16 10:58:09;;;;;;;37.35;23.63;;;;;;;15.15;57.35;98603.34;4890152;29;20059;-76
2022/11/16 11:04:37;;;;;;;30.83;18.98;;;;;;;15.32;56.03;98586.97;4836371;29;20030;-73
2022/11/16 11:14:54;;;;;;;49.38;31.50;;;;;;;15.46;54.73;98572.22;4816701;29;20057;-76
2022/11/16 11:17:20;;;;;;;23.23;14.68;;;;;;;15.55;53.74;98565.03;4775047;30;20058;-75
2022/11/16 11:19:45;;;;;;;33.28;20.17;;;;;;;15.65;54.47;98563.50;4807554;29;20046;-75
2022/11/16 11:22:13;;;;;;;21.48;14.45;;;;;;;15.69;53.92;98549.44;4878454;29;20047;-72
2022/11/16 11:24:46;;;;;;;32.42;15.25;;;;;;;15.71;53.70;98556.28;4975680;28;20068;-75
2022/11/16 11:27:13;;;;;;;24.45;14.90;;;;;;;15.42;54.58;98555.28;5050574;28;20124;-72
2022/11/16 11:29:41;;;;;;;30.52;18.25;;;;;;;15.55;54.88;98558.59;5031474;28;20028;-74
2022/11/16 11:32:13;;;;;;;24.35;15.52;;;;;;;15.63;53.96;98554.66;5052426;28;20488;-71
2022/11/16 11:34:46;;;;;;;21.17;15.82;;;;;;;15.56;53.98;98541.28;5050598;28;20792;-73
2022/11/16 11:37:36;;;;;;;23.45;15.35;;;;;;;15.70;53.70;98539.78;5032115;28;20068;-73
2022/11/16 11:40:05;;;;;;;;;;;;;;;15.92;54.02;98552.03;5052065;28;20051;-75
2022/11/16 11:42:30;;;;;;;24.75;14.73;;;;;;;16.17;53.34;98537.25;5049408;28;19947;-73
2022/11/16 11:44:59;;;;;;;29.38;16.65;;;;;;;16.14;52.21;98544.50;5051946;28;20029;-75
2022/11/16 11:47:39;;;;;;;22.33;15.90;;;;;;;16.35;52.08;98542.97;5023031;28;20423;-74
2022/11/16 11:50:25;;;;;;;30.15;17.02;;;;;;;16.40;53.46;98545.41;5043396;28;20575;-73
2022/11/16 11:53:26;;;;;;;28.02;17.83;;;;;;;16.11;54.52;98539.66;5048951;28;20041;-74
2022/11/16 11:55:56;;;;;;;27.63;15.13;;;;;;;16.05;53.94;98532.78;5035464;28;20887;-74
2022/11/16 11:58:28;;;;;;;27.80;15.82;;;;;;;16.06;53.45;98528.75;5039483;28;20108;-74
2022/11/16 12:01:31;;;;;;;25.75;15.10;;;;;;;16.17;52.99;98519.50;5033434;28;20111;-74
2022/11/16 12:04:05;;;;;;;24.83;15.35;;;;;;;16.40;53.13;98517.19;5049393;28;20052;-73
2022/11/16 12:06:37;;;;;;;22.08;14.98;;;;;;;16.32;51.58;98512.75;5045858;28;20041;-73
2022/11/16 12:09:33;;;;;;;21.67;15.30;;;;;;;16.56;52.18;98511.19;5043264;28;20033;-74
2022/11/16 12:12:29;;;;;;;31.08;14.88;;;;;;;16.73;51.49;98510.81;5044637;28;20060;-74
2022/11/16 12:15:23;;;;;;;30.42;16.83;;;;;;;16.49;52.19;98497.06;5039016;28;20112;-74
2022/11/16 12:18:05;;;;;;;26.70;16.80;;;;;;;16.71;52.34;98491.44;5026813;28;20071;-73
2022/11/16 12:20:59;;;;;;;23.23;14.93;;;;;;;16.72;51.54;98495.91;5042398;28;20443;-72
2022/11/16 12:23:50;;;;;;;22.98;15.15;;;;;;;16.52;51.22;98496.25;5023301;28;20078;-74
2022/11/16 12:27:05;;;;;;;22.60;13.35;;;;;;;16.54;51.02;98493.06;5020859;28;20037;-75
2022/11/16 12:29:52;;;;;;;22.92;15.15;;;;;;;16.41;50.95;98486.97;4942440;29;20040;-74
2022/11/16 12:32:20;;;;;;;25.05;15.50;;;;;;;16.31;51.35;98485.72;4932879;29;20035;-73
2022/11/16 12:35:09;;;;;;;22.27;15.00;;;;;;;16.23;51.06;98489.72;5012579;28;20049;-74
2022/11/16 12:37:44;;;;;;;30.00;18.25;;;;;;;16.24;52.28;98485.69;5051457;28;20083;-73
2022/11/16 12:40:25;;;;;;;28.92;18.63;;;;;;;16.29;51.88;98482.50;5049258;28;20035;-74
2022/11/16 12:42:51;;;;;;;36.97;20.77;;;;;;;16.18;51.78;98482.44;5045942;28;20029;-74
2022/11/16 12:45:35;;;;;;;28.67;18.65;;;;;;;16.22;52.54;98477.63;5035673;28;20052;-74
2022/11/16 12:48:16;;;;;;;40.05;20.00;;;;;;;16.23;52.63;98475.63;5034609;28;20060;-75
2022/11/16 12:50:56;;;;;;;34.90;20.92;;;;;;;16.16;52.93;98479.22;5053692;28;20021;-75
2022/11/16 12:53:37;;;;;;;49.83;21.02;;;;;;;16.08;52.60;98480.38;5053673;28;20044;-74
2022/11/16 12:56:16;;;;;;;29.17;17.65;;;;;;;16.02;52.86;98477.16;5027493;28;20095;-75
2022/11/16 12:59:26;;;;;;;28.00;16.60;;;;;;;16.18;52.77;98476.81;5025933;28;20029;-74
2022/11/16 13:02:16;;;;;;;25.98;17.25;;;;;;;16.19;52.79;98486.09;4983213;28;20115;-75
2022/11/16 13:04:46;;;;;;;27.98;16.98;;;;;;;16.16;52.54;98478.41;5045082;28;20128;-74
2022/11/16 13:07:23;;;;;;;23.58;13.98;;;;;;;16.26;51.77;98481.28;5053361;28;20025;-75
2022/11/16 13:09:59;;;;;;;24.35;13.20;;;;;;;16.19;51.69;98481.25;5035340;28;20106;-75
2022/11/16 13:12:26;;;;;;;20.85;13.75;;;;;;;16.09;51.58;98480.00;5023810;28;20033;-75
2022/11/16 13:14:55;;;;;;;26.88;14.35;;;;;;;16.02;52.07;98474.31;5047986;28;20033;-74
2022/11/16 13:17:27;;;;;;;21.08;14.45;;;;;;;15.92;51.64;98475.06;5053201;28;20090;-75
2022/11/16 13:20:13;;;;;;;23.35;14.23;;;;;;;15.83;52.27;98473.41;5030578;28;20032;-75
2022/11/16 13:22:45;;;;;;;21.23;14.50;;;;;;;15.90;52.32;98471.84;5045824;28;20032;-75
2022/11/16 13:25:20;;;;;;;23.33;14.98;;;;;;;16.00;52.66;98465.47;5050245;28;20744;-74
2022/11/16 13:27:55;;;;;;;20.17;14.40;;;;;;;16.17;52.72;98472.38;5052529;28;20025;-75
2022/11/16 13:30:31;;;;;;;30.15;14.02;;;;;;;16.14;52.62;98471.16;5036101;28;20032;-73
2022/11/16 13:33:12;;;;;;;20.23;13.60;;;;;;;16.15;51.53;98466.31;5034391;28;20041;-73
2022/11/16 13:35:38;;;;;;;16.83;12.38;;;;;;;16.06;51.82;98466.72;5041125;28;20022;-74
2022/11/16 13:38:09;;;;;;;19.30;11.80;;;;;;;15.92;50.91;98470.25;5030038;28;20048;-74
2022/11/16 13:40:35;;;;;;;19.33;12.32;;;;;;;15.91;51.45;98463.00;5048983;28;20457;-75
2022/11/16 13:43:10;;;;;;;18.65;11.82;;;;;;;15.90;52.16;98464.22;5050717;28;20033;-75
2022/11/16 13:45:40;;;;;;;22.75;13.10;;;;;;;16.00;51.96;98451.34;5030968;28;20419;-75
2022/11/16 13:48:32;;;;;;;17.67;12.90;;;;;;;16.04;52.27;98457.81;5033746;28;20060;-75
2022/11/16 13:51:01;;;;;;;18.38;13.90;;;;;;;16.16;52.12;98453.84;5049290;28;20057;-75
2022/11/16 13:53:44;;;;;;;25.92;14.25;;;;;;;16.06;51.20;98465.88;5035701;28;20029;-75
2022/11/16 13:56:10;;;;;;;31.73;15.90;;;;;;;16.06;51.85;98455.44;5052036;28;20021;-75
2022/11/16 13:58:42;;;;;;;28.33;16.70;;;;;;;16.13;52.15;98461.06;5051732;28;20106;-75
2022/11/16 14:01:13;;;;;;;27.38;16.75;;;;;;;15.99;54.05;98452.56;5045222;28;20069;-75
2022/11/16 14:03:41;;;;;;;23.67;15.60;;;;;;;15.99;54.31;98461.84;5033027;28;20039;-73
2022/11/16 14:06:19;;;;;;;22.33;14.63;;;;;;;15.86;54.74;98452.06;5033407;28;20028;-75
2022/11/16 14:08:52;;;;;;;30.90;16.98;;;;;;;15.79;55.04;98450.03;5053993;28;20056;-74
2022/11/16 14:11:36;;;;;;;27.15;17.45;;;;;;;15.68;56.00;98449.16;5052095;28;20108;-78
2022/11/16 14:14:05;;;;;;;38.30;20.00;;;;;;;15.63;56.05;98441.91;5029216;28;20515;-77